createdAt,value
2023-04-19T07:01:32.574Z,46.37
2023-04-19T07:04:35.521Z,46.30
2023-04-19T07:07:38.313Z,46.55
2023-04-19T07:10:43.160Z,45.59
2023-04-19T07:13:45.522Z,44.50
2023-04-19T07:16:50.850Z,43.87
2023-04-19T07:19:54.056Z,42.00
2023-04-19T07:22:56.727Z,42.03
2023-04-19T07:25:59.200Z,41.73
2023-04-19T07:29:01.925Z,42.99
2023-04-19T07:32:05.916Z,43.25
2023-04-19T07:35:09.317Z,43.21
2023-04-19T07:38:11.662Z,43.79
2023-04-19T07:41:14.490Z,42.90
2023-04-19T07:44:17.050Z,44.25
2023-04-19T07:47:21.367Z,43.57
2023-04-19T07:50:24.632Z,42.84
2023-04-19T07:53:27.463Z,44.40
2023-04-19T07:56:30.028Z,43.16
2023-04-19T07:59:33.473Z,44.53
2023-04-19T08:02:37.330Z,43.64
2023-04-19T08:05:40.337Z,43.79
2023-04-19T08:08:42.777Z,43.78
2023-04-19T08:11:45.815Z,43.25
2023-04-19T08:15:01.545Z,44.11
2023-04-19T08:18:11.850Z,42.87
2023-04-19T08:21:14.292Z,40.45
2023-04-19T08:24:17.135Z,41.75
2023-04-19T08:27:19.957Z,41.28
2023-04-19T08:30:22.801Z,38.95
2023-04-19T08:33:26.580Z,39.27
2023-04-19T08:36:38.989Z,39.34
2023-04-19T08:39:43.754Z,37.32
2023-04-19T08:42:46.528Z,38.32
2023-04-19T08:45:49.108Z,40.59
2023-04-19T08:48:53.243Z,37.49
2023-04-19T08:51:57.362Z,38.78
2023-04-19T08:55:01.383Z,39.17
2023-04-19T08:58:04.152Z,36.09
2023-04-19T09:01:12.771Z,38.67
2023-04-19T09:04:35.559Z,39.27
2023-04-19T09:07:39.374Z,37.13
2023-04-19T09:10:43.950Z,37.74
2023-04-19T09:13:46.723Z,37.01
2023-04-19T09:16:49.471Z,40.23
2023-04-19T09:19:53.584Z,38.68
2023-04-19T09:23:02.737Z,37.64
2023-04-19T09:26:22.700Z,37.70
2023-04-19T09:29:27.021Z,36.19
2023-04-19T09:32:29.899Z,37.74
2023-04-19T09:35:43.952Z,37.51
2023-04-19T09:38:46.891Z,38.03
2023-04-19T09:41:53.137Z,36.66
2023-04-19T09:45:27.785Z,35.91
2023-04-19T09:48:19.005Z,36.79
2023-04-19T09:51:23.205Z,37.66
2023-04-19T09:54:28.709Z,35.73
2023-04-19T09:57:31.635Z,36.84
2023-04-19T10:00:45.463Z,34.54
2023-04-19T10:03:52.168Z,34.60
2023-04-19T10:10:15.821Z,37.80
2023-04-19T10:13:25.769Z,38.18
2023-04-19T10:16:30.602Z,38.28
2023-04-19T10:19:33.056Z,36.10
2023-04-19T10:22:37.921Z,35.74
2023-04-19T10:25:40.402Z,34.14
2023-04-19T10:28:43.100Z,36.16
2023-04-19T10:31:45.536Z,40.15
2023-04-19T10:34:48.227Z,35.45
2023-04-19T10:38:08.651Z,37.40
2023-04-19T10:41:18.504Z,40.40
2023-04-19T10:44:21.570Z,40.38
2023-04-19T10:47:41.757Z,35.29
2023-04-19T10:50:58.086Z,40.42
2023-04-19T10:54:02.746Z,37.66
2023-04-19T10:57:05.798Z,38.11
2023-04-19T11:00:18.455Z,40.02
2023-04-19T11:03:51.456Z,39.37
2023-04-19T11:07:01.868Z,39.78
2023-04-19T11:10:06.711Z,40.68
2023-04-19T11:13:09.410Z,38.88
2023-04-19T11:16:12.179Z,37.40
2023-04-19T11:19:15.908Z,36.89
2023-04-19T11:22:18.513Z,40.22
2023-04-19T11:25:23.811Z,42.44
2023-04-19T11:28:26.340Z,41.45
2023-04-19T11:31:29.139Z,41.20
2023-04-19T11:34:36.022Z,41.38
2023-04-19T11:37:39.203Z,39.18
2023-04-19T11:40:43.201Z,39.13
2023-04-19T11:43:46.878Z,39.16
2023-04-19T11:46:59.681Z,40.02
2023-04-19T11:50:33.301Z,37.76
2023-04-19T11:53:35.757Z,38.85
2023-04-19T11:56:54.661Z,39.34
2023-04-19T12:00:07.128Z,38.87
2023-04-19T12:03:14.690Z,39.38
2023-04-19T12:06:18.481Z,40.61
2023-04-19T12:09:22.924Z,38.75
2023-04-19T12:12:35.290Z,42.17
2023-04-19T12:15:41.722Z,34.91
2023-04-19T12:18:45.861Z,41.89
2023-04-19T12:21:48.296Z,44.48
2023-04-19T12:24:51.517Z,46.82
2023-04-19T12:27:55.459Z,46.64
2023-04-19T12:30:58.260Z,47.39
2023-04-19T12:34:00.870Z,47.39
2023-04-19T12:37:06.238Z,45.75
2023-04-19T12:40:09.747Z,42.40
2023-04-19T12:43:13.864Z,42.65
2023-04-19T12:46:16.449Z,41.46
2023-04-19T12:49:21.813Z,41.86
2023-04-19T12:52:24.239Z,42.07
2023-04-19T12:55:27.168Z,43.80
2023-04-19T12:58:32.230Z,42.98
2023-04-19T13:01:35.220Z,46.50
2023-04-19T13:04:37.798Z,47.99
2023-04-19T13:07:41.169Z,45.15
2023-04-19T13:10:43.554Z,47.66
2023-04-19T13:13:47.605Z,48.56
2023-04-19T13:16:49.797Z,48.06
2023-04-19T13:19:52.363Z,49.95
2023-04-19T13:22:54.791Z,50.23
2023-04-19T13:25:57.468Z,49.48
2023-04-19T13:29:01.245Z,49.82
2023-04-19T13:32:07.341Z,50.92
2023-04-19T13:35:10.304Z,51.74
2023-04-19T13:38:13.116Z,52.72
2023-04-19T13:41:15.556Z,50.75
2023-04-19T13:44:19.604Z,51.55
2023-04-19T13:47:21.714Z,51.33
2023-04-19T13:50:24.374Z,51.48
2023-04-19T13:53:27.161Z,53.58
2023-04-19T13:56:30.229Z,51.68
2023-04-19T13:59:33.964Z,51.53
2023-04-19T14:02:36.869Z,52.79
2023-04-19T14:05:40.820Z,52.59
2023-04-19T14:08:43.249Z,52.62
2023-04-19T14:11:45.963Z,52.52
2023-04-19T14:14:49.723Z,51.97
2023-04-19T14:17:52.669Z,50.45
2023-04-19T14:20:55.226Z,49.43
2023-04-19T14:23:57.912Z,49.40
2023-04-19T14:27:10.441Z,50.07
2023-04-19T14:30:15.622Z,50.72
2023-04-19T14:33:18.290Z,49.12
2023-04-19T14:36:21.006Z,49.28
2023-04-19T14:39:23.357Z,49.63
2023-04-19T14:42:26.188Z,51.81
2023-04-19T14:45:30.016Z,50.74
2023-04-19T14:48:32.741Z,48.40
2023-04-19T14:51:35.108Z,47.97
2023-04-19T14:54:37.733Z,49.03
2023-04-19T14:57:40.322Z,48.77
2023-04-19T15:00:44.533Z,48.98
2023-04-19T15:06:49.655Z,48.14
